Time;durP1;ratioP1;P1;durP2;ratioP2;P2;SDS_P1;SDS_P2;PMS_P1;PMS_P2;Temp;Humidity;BMP_temperature;BMP_pressure;BME280_temperature;BME280_humidity;BME280_pressure;Samples;Min_cycle;Max_cycle;Signal;HPM_P1;HPM_P2
2023/07/07 00:02:13;;;;;;;4.80;4.10;;;;;;;13.89;99.41;101810.34;5069101;28;20510;-71
2023/07/07 00:04:39;;;;;;;5.43;3.97;;;;;;;13.84;99.48;101810.69;5064681;28;20048;-72
2023/07/07 00:07:05;;;;;;;5.00;3.78;;;;;;;13.81;99.78;101813.53;5066120;28;20024;-72
2023/07/07 00:09:30;;;;;;;6.47;4.38;;;;;;;13.80;99.95;101812.69;5048561;28;20115;-72
2023/07/07 00:11:57;;;;;;;5.78;3.85;;;;;;;13.79;99.92;101811.00;5050193;28;20032;-72
2023/07/07 00:14:22;;;;;;;7.05;4.07;;;;;;;13.78;100.00;101809.31;5064118;28;20484;-72
2023/07/07 00:16:47;;;;;;;7.78;3.97;;;;;;;13.76;100.00;101805.94;5061719;28;20111;-71
2023/07/07 00:19:13;;;;;;;6.13;3.97;;;;;;;13.76;100.00;101811.22;5065448;28;20106;-82
2023/07/07 00:21:40;;;;;;;8.70;4.30;;;;;;;13.83;99.98;101816.09;5069070;28;20025;-81
2023/07/07 00:24:07;;;;;;;6.32;3.88;;;;;;;13.78;100.00;101811.97;5070056;28;20101;-71
2023/07/07 00:26:33;;;;;;;7.20;4.05;;;;;;;13.75;100.00;101812.19;5068247;28;20561;-82
2023/07/07 00:28:59;;;;;;;7.65;4.63;;;;;;;13.76;99.75;101810.38;5068830;28;20036;-81
2023/07/07 00:31:25;;;;;;;6.45;4.18;;;;;;;13.73;99.69;101806.16;5069729;28;20021;-72
2023/07/07 00:33:51;;;;;;;7.88;3.90;;;;;;;13.70;100.00;101814.31;5063128;28;20603;-71
2023/07/07 00:36:17;;;;;;;5.18;3.97;;;;;;;13.69;100.00;101812.63;5068375;28;20047;-82
2023/07/07 00:38:42;;;;;;;5.18;4.38;;;;;;;13.69;99.50;101810.00;5069205;28;20052;-71
2023/07/07 00:41:09;;;;;;;7.38;4.40;;;;;;;13.66;99.98;101820.78;5069294;28;20489;-81
2023/07/07 00:43:35;;;;;;;6.30;4.38;;;;;;;13.61;100.00;101814.13;5067866;28;20027;-81
2023/07/07 00:46:02;;;;;;;9.07;5.30;;;;;;;13.59;99.94;101816.03;5067292;28;20523;-71
2023/07/07 00:48:38;;;;;;;5.90;4.65;;;;;;;13.60;99.56;101818.56;5068879;28;20268;-71
2023/07/07 00:51:12;;;;;;;6.03;4.97;;;;;;;13.53;100.00;101812.00;5063960;28;20082;-72
2023/07/07 00:53:40;;;;;;;7.40;4.70;;;;;;;13.47;99.71;101810.66;5071595;28;20078;-71
2023/07/07 00:56:15;;;;;;;9.18;4.78;;;;;;;13.48;99.91;101806.22;5080277;28;20062;-72
2023/07/07 00:58:42;;;;;;;9.10;4.93;;;;;;;13.45;99.88;101801.16;5068141;28;20039;-71
2023/07/07 01:01:14;;;;;;;5.90;4.80;;;;;;;13.39;100.00;101817.44;5069243;28;20111;-71
2023/07/07 01:03:50;;;;;;;8.63;5.50;;;;;;;13.42;100.00;101818.06;5057883;28;20044;-81
2023/07/07 01:06:21;;;;;;;9.18;5.15;;;;;;;13.43;99.79;101825.06;5068691;28;20103;-81
2023/07/07 01:08:57;;;;;;;5.97;4.53;;;;;;;13.36;99.79;101828.22;5066897;28;20021;-72
2023/07/07 01:11:22;;;;;;;7.90;4.95;;;;;;;13.36;99.83;101817.66;5080499;28;20507;-71
2023/07/07 01:13:47;;;;;;;8.73;4.82;;;;;;;13.30;100.00;101826.03;5048116;28;20028;-71
2023/07/07 01:16:47;;;;;;;7.22;5.10;;;;;;;13.33;99.83;101824.00;5062635;28;20024;-71
2023/07/07 01:19:37;;;;;;;5.68;4.63;;;;;;;13.27;100.00;101827.09;5069188;28;20043;-70
2023/07/07 01:22:06;;;;;;;6.32;4.68;;;;;;;13.27;100.00;101824.44;5069394;28;20029;-71
2023/07/07 01:24:56;;;;;;;7.28;4.80;;;;;;;13.25;100.00;101822.84;5069380;28;20396;-80
2023/07/07 01:27:42;;;;;;;6.03;4.82;;;;;;;13.15;100.00;101819.94;5062420;28;20035;-81
2023/07/07 01:30:37;;;;;;;8.43;4.60;;;;;;;13.17;100.00;101821.56;5064445;28;20059;-74
2023/07/07 01:33:08;;;;;;;5.43;4.53;;;;;;;13.09;100.00;101825.66;5068901;28;20024;-71
2023/07/07 01:35:34;;;;;;;7.57;4.65;;;;;;;13.06;100.00;101820.59;5068026;28;20545;-71
2023/07/07 01:38:01;;;;;;;6.75;4.75;;;;;;;13.05;100.00;101819.75;5068462;28;20384;-71
2023/07/07 01:40:55;;;;;;;8.02;5.43;;;;;;;13.06;100.00;101818.78;5067895;28;20597;-71
2023/07/07 01:43:34;;;;;;;;;;;;;;;13.18;98.78;101817.97;5058317;28;20036;-71
2023/07/07 01:46:10;;;;;;;6.32;4.80;;;;;;;12.99;100.00;101820.19;5064165;28;20497;-71
2023/07/07 01:48:42;;;;;;;6.07;5.03;;;;;;;12.99;100.00;101814.03;5067560;28;20036;-71
2023/07/07 01:51:13;;;;;;;8.17;5.10;;;;;;;13.00;100.00;101821.88;5052450;28;20029;-71
2023/07/07 01:53:41;;;;;;;7.97;5.10;;;;;;;12.93;100.00;101825.88;5058955;28;20779;-81
2023/07/07 01:56:11;;;;;;;6.65;5.10;;;;;;;12.90;100.00;101822.59;5085221;28;20379;-81
2023/07/07 01:58:39;;;;;;;6.95;5.05;;;;;;;12.86;100.00;101822.81;5092659;28;20020;-71
2023/07/07 02:01:05;;;;;;;6.85;4.78;;;;;;;12.84;100.00;101815.94;5072423;28;20024;-71
2023/07/07 02:03:30;;;;;;;6.65;5.10;;;;;;;12.82;100.00;101823.13;5065767;28;20024;-70
2023/07/07 02:05:56;;;;;;;8.80;4.90;;;;;;;12.77;100.00;101819.94;5071637;28;20074;-71
2023/07/07 02:08:21;;;;;;;7.10;5.30;;;;;;;12.78;100.00;101814.53;5071114;28;20028;-81
2023/07/07 02:10:46;;;;;;;7.57;5.65;;;;;;;12.73;100.00;101823.72;5071422;28;20021;-71
2023/07/07 02:13:12;;;;;;;6.00;5.25;;;;;;;12.76;100.00;101812.97;5072375;28;20099;-81
2023/07/07 02:15:37;;;;;;;6.38;5.43;;;;;;;12.72;100.00;101816.75;5053581;28;20086;-81
2023/07/07 02:18:04;;;;;;;5.97;5.15;;;;;;;12.69;100.00;101815.16;5070528;28;20078;-81
2023/07/07 02:20:30;;;;;;;6.13;5.32;;;;;;;12.64;100.00;101817.28;5057658;28;20029;-71
2023/07/07 02:22:55;;;;;;;7.20;5.53;;;;;;;12.67;100.00;101818.88;5070887;28;20024;-81
2023/07/07 02:25:21;;;;;;;6.97;5.32;;;;;;;12.62;100.00;101813.03;5071265;28;20027;-81
2023/07/07 02:27:46;;;;;;;8.15;5.28;;;;;;;12.63;100.00;101814.75;5071784;28;20137;-71
2023/07/07 02:30:12;;;;;;;7.68;5.25;;;;;;;12.55;100.00;101817.91;5071150;28;20124;-71
2023/07/07 02:32:38;;;;;;;6.38;5.70;;;;;;;12.57;100.00;101815.16;5072105;28;20078;-71
2023/07/07 02:35:06;;;;;;;7.75;5.18;;;;;;;12.51;100.00;101819.91;5071437;28;20017;-80
2023/07/07 02:37:32;;;;;;;6.32;5.30;;;;;;;12.48;100.00;101817.47;5062729;28;20024;-81
2023/07/07 02:39:58;;;;;;;6.80;5.68;;;;;;;12.45;100.00;101809.75;5066551;28;20455;-71
2023/07/07 02:42:23;;;;;;;6.18;5.40;;;;;;;12.49;100.00;101820.94;5067406;28;20017;-71
2023/07/07 02:44:49;;;;;;;6.43;5.78;;;;;;;12.44;100.00;101813.34;5070934;28;20044;-80
2023/07/07 02:47:14;;;;;;;9.02;6.00;;;;;;;12.37;100.00;101822.59;5069791;28;20021;-81
2023/07/07 02:49:40;;;;;;;6.68;5.65;;;;;;;12.40;100.00;101824.16;5070501;28;20048;-81
2023/07/07 02:52:06;;;;;;;7.80;5.93;;;;;;;12.34;100.00;101821.94;5068011;28;20029;-81
2023/07/07 02:54:32;;;;;;;7.32;5.68;;;;;;;12.33;100.00;101821.09;5079116;28;20028;-71
2023/07/07 02:56:58;;;;;;;7.45;5.28;;;;;;;12.33;100.00;101821.09;5072893;28;20027;-71
2023/07/07 02:59:23;;;;;;;6.88;5.28;;;;;;;12.25;100.00;101823.41;5069208;28;20499;-71
2023/07/07 03:01:49;;;;;;;6.05;5.43;;;;;;;12.27;100.00;101826.78;5070206;28;20070;-71
2023/07/07 03:04:14;;;;;;;10.07;5.68;;;;;;;12.22;100.00;101831.50;5070397;28;20031;-81
2023/07/07 03:06:40;;;;;;;7.70;5.53;;;;;;;12.25;100.00;101839.22;5071259;28;20473;-70
2023/07/07 03:09:06;;;;;;;6.18;5.38;;;;;;;12.17;100.00;101836.25;5068316;28;20475;-71
2023/07/07 03:11:32;;;;;;;9.85;5.63;;;;;;;12.19;100.00;101839.63;5052543;28;20389;-71
2023/07/07 03:13:58;;;;;;;7.00;5.65;;;;;;;12.13;100.00;101840.03;5051379;28;20036;-71
2023/07/07 03:16:30;;;;;;;8.52;5.75;;;;;;;12.09;100.00;101838.53;5052076;28;20021;-71
2023/07/07 03:19:06;;;;;;;8.32;5.50;;;;;;;12.10;100.00;101840.22;5066986;28;20043;-71
2023/07/07 03:21:33;;;;;;;6.20;5.60;;;;;;;12.08;100.00;101842.13;5071332;28;20384;-71
2023/07/07 03:23:58;;;;;;;10.25;5.90;;;;;;;12.07;100.00;101829.88;5070654;28;20518;-71
2023/07/07 03:26:26;;;;;;;6.68;5.93;;;;;;;12.03;100.00;101833.66;5063463;28;20029;-71
2023/07/07 03:28:52;;;;;;;8.30;6.10;;;;;;;12.02;100.00;101837.25;5070399;28;20514;-81
2023/07/07 03:31:26;;;;;;;6.88;5.90;;;;;;;12.01;100.00;101835.53;5068655;28;20028;-70
2023/07/07 03:33:56;;;;;;;6.22;5.63;;;;;;;12.01;100.00;101840.78;5069575;28;20047;-70
2023/07/07 03:36:24;;;;;;;8.68;5.78;;;;;;;11.93;100.00;101839.50;5070029;28;20032;-81
2023/07/07 03:38:50;;;;;;;7.80;5.80;;;;;;;12.01;100.00;101846.06;5067941;28;20484;-70
2023/07/07 03:41:19;;;;;;;7.30;6.22;;;;;;;11.97;100.00;101842.78;5070364;28;20060;-80
2023/07/07 03:43:45;;;;;;;7.28;6.00;;;;;;;11.93;100.00;101831.59;5065095;28;20036;-70
2023/07/07 03:46:15;;;;;;;7.68;6.13;;;;;;;11.94;100.00;101840.34;5066624;28;20493;-71
2023/07/07 03:48:45;;;;;;;7.95;6.18;;;;;;;11.97;100.00;101839.31;5070053;28;20041;-70
2023/07/07 03:51:12;;;;;;;6.75;5.72;;;;;;;11.90;100.00;101839.69;5068912;28;20480;-70
2023/07/07 03:53:37;;;;;;;8.15;5.85;;;;;;;11.95;100.00;101841.19;5069074;28;20032;-70
2023/07/07 03:56:03;;;;;;;8.88;6.35;;;;;;;11.89;100.00;101837.16;5073354;28;20066;-70
2023/07/07 03:58:29;;;;;;;8.35;5.93;;;;;;;11.91;100.00;101835.28;5069507;28;20060;-81
2023/07/07 04:01:02;;;;;;;10.88;5.88;;;;;;;11.92;100.00;101827.25;5084877;28;20067;-71
2023/07/07 04:03:28;;;;;;;9.05;6.32;;;;;;;11.93;100.00;101834.22;5053583;28;20035;-71
2023/07/07 04:05:55;;;;;;;7.93;5.53;;;;;;;11.93;100.00;101839.50;5069577;28;20033;-70
2023/07/07 04:08:24;;;;;;;7.50;6.10;;;;;;;12.50;100.00;101839.31;5067934;28;20491;-71
2023/07/07 04:11:05;;;;;;;6.65;5.45;;;;;;;13.46;100.00;101824.84;5069930;28;20028;-80
2023/07/07 04:13:33;;;;;;;6.60;4.97;;;;;;;14.64;92.74;101832.16;5069099;28;20051;-70
2023/07/07 04:16:09;;;;;;;5.82;5.13;;;;;;;15.34;87.83;101837.34;5069184;28;20545;-70
2023/07/07 04:18:35;;;;;;;7.22;4.50;;;;;;;16.64;80.63;101843.59;5070536;28;20042;-70
2023/07/07 04:21:06;;;;;;;6.20;4.20;;;;;;;17.42;76.90;101845.78;5049911;28;20029;-70
2023/07/07 04:23:32;;;;;;;6.32;4.60;;;;;;;18.02;72.77;101838.75;5049656;28;20025;-71
2023/07/07 04:25:58;;;;;;;5.00;4.20;;;;;;;18.71;69.75;101840.47;5064374;28;20028;-71
2023/07/07 04:28:24;;;;;;;7.25;4.50;;;;;;;18.31;69.91;101844.09;5069062;28;20029;-71
2023/07/07 04:30:54;;;;;;;7.05;3.90;;;;;;;17.75;71.88;101841.19;5069879;28;20031;-70
2023/07/07 04:33:20;;;;;;;7.20;4.45;;;;;;;16.95;74.77;101846.38;5069356;28;20024;-71
2023/07/07 04:35:54;;;;;;;5.00;4.20;;;;;;;16.58;76.86;101849.44;5068917;28;20082;-82
2023/07/07 04:38:21;;;;;;;4.95;4.28;;;;;;;16.24;78.22;101851.38;5062919;28;20031;-72
2023/07/07 04:40:47;;;;;;;7.30;4.60;;;;;;;15.99;79.81;101848.03;5069604;28;20048;-72
2023/07/07 04:43:12;;;;;;;5.75;4.70;;;;;;;15.59;81.59;101847.72;5067105;28;20388;-81
2023/07/07 04:45:38;;;;;;;8.07;4.90;;;;;;;15.39;83.10;101845.78;5068713;28;20045;-72
2023/07/07 04:48:03;;;;;;;11.00;5.88;;;;;;;15.15;84.75;101839.72;5068855;28;20032;-82
2023/07/07 04:50:28;;;;;;;6.80;5.50;;;;;;;14.91;86.75;101837.16;5068199;28;20056;-81
2023/07/07 04:52:54;;;;;;;6.80;5.18;;;;;;;14.73;88.04;101845.53;5067724;28;20122;-72
2023/07/07 04:55:19;;;;;;;8.68;5.60;;;;;;;14.61;89.33;101835.03;5075043;28;20650;-82
2023/07/07 04:57:45;;;;;;;10.25;6.28;;;;;;;14.53;90.34;101838.25;5064944;28;20034;-81
2023/07/07 05:00:12;;;;;;;7.85;5.95;;;;;;;14.44;91.56;101843.41;5069038;28;20024;-81
2023/07/07 05:02:38;;;;;;;7.70;5.88;;;;;;;14.37;91.92;101850.91;5068892;28;20115;-81
2023/07/07 05:05:03;;;;;;;7.65;6.25;;;;;;;14.38;91.86;101845.47;5067401;28;20120;-71
2023/07/07 05:07:29;;;;;;;9.10;6.38;;;;;;;14.37;91.34;101842.94;5068391;28;20303;-71
2023/07/07 05:09:55;;;;;;;10.20;7.15;;;;;;;14.41;91.98;101842.66;5067124;28;20032;-71
2023/07/07 05:12:21;;;;;;;9.02;6.65;;;;;;;14.40;92.43;101848.88;5061399;28;20137;-72
2023/07/07 05:14:46;;;;;;;9.43;6.72;;;;;;;14.34;92.48;101841.38;5066587;28;20472;-80
2023/07/07 05:17:12;;;;;;;8.82;7.03;;;;;;;14.29;92.32;101840.88;5068005;28;20060;-72
2023/07/07 05:19:39;;;;;;;10.18;7.28;;;;;;;14.26;93.02;101843.75;5072356;28;20035;-71
2023/07/07 05:22:05;;;;;;;11.20;7.35;;;;;;;14.31;93.19;101848.72;5072796;28;20048;-71
2023/07/07 05:24:30;;;;;;;12.23;6.72;;;;;;;14.35;92.34;101851.00;5066750;28;20047;-71
2023/07/07 05:26:56;;;;;;;12.07;6.95;;;;;;;14.41;91.57;101850.59;5066573;28;20100;-71
2023/07/07 05:29:22;;;;;;;11.73;6.80;;;;;;;14.44;90.73;101848.69;5066019;28;20040;-71
2023/07/07 05:31:48;;;;;;;13.35;6.75;;;;;;;14.48;90.15;101852.81;5072045;28;20083;-70
2023/07/07 05:34:13;;;;;;;10.35;6.70;;;;;;;14.52;91.26;101851.63;5072920;28;20032;-71
2023/07/07 05:36:38;;;;;;;11.25;6.45;;;;;;;14.58;89.60;101853.81;5073443;28;20025;-80
2023/07/07 05:39:06;;;;;;;10.77;6.65;;;;;;;14.69;88.76;101843.25;5072579;28;20579;-81
2023/07/07 05:41:32;;;;;;;10.65;6.63;;;;;;;14.84;87.00;101847.41;5071522;28;20449;-80
2023/07/07 05:43:57;;;;;;;11.85;6.75;;;;;;;14.91;87.51;101845.13;5068894;28;20067;-79
2023/07/07 05:46:22;;;;;;;7.63;5.75;;;;;;;15.00;86.51;101858.50;5067047;28;20434;-71
2023/07/07 05:48:48;;;;;;;14.82;6.50;;;;;;;15.14;85.84;101859.25;5072452;28;20484;-72
2023/07/07 05:51:16;;;;;;;9.23;5.65;;;;;;;15.26;86.29;101858.31;5072520;28;20024;-72
2023/07/07 05:53:44;;;;;;;10.55;6.00;;;;;;;15.41;84.38;101851.81;5075705;28;20105;-71
2023/07/07 05:56:18;;;;;;;12.65;5.65;;;;;;;15.50;83.75;101855.53;5082112;28;20028;-71
2023/07/07 05:58:44;;;;;;;13.68;5.80;;;;;;;15.58;83.48;101851.34;5070561;28;20090;-81
2023/07/07 06:01:13;;;;;;;9.18;4.93;;;;;;;15.64;82.91;101853.53;5062736;28;20473;-72
2023/07/07 06:03:39;;;;;;;8.90;5.10;;;;;;;15.70;81.25;101851.38;5068541;28;20086;-71
2023/07/07 06:06:04;;;;;;;8.10;4.88;;;;;;;15.82;81.62;101851.22;5075099;28;20118;-81
2023/07/07 06:08:31;;;;;;;9.48;5.03;;;;;;;16.00;80.60;101859.50;5069362;28;20111;-72
2023/07/07 06:10:56;;;;;;;7.45;4.60;;;;;;;16.07;79.20;101860.72;5071830;28;20028;-71
2023/07/07 06:13:24;;;;;;;9.95;4.63;;;;;;;16.18;78.00;101858.03;5070536;28;20020;-71
2023/07/07 06:15:51;;;;;;;7.72;4.18;;;;;;;16.32;75.57;101854.25;5071919;28;20132;-81
2023/07/07 06:18:19;;;;;;;8.68;4.40;;;;;;;16.50;75.40;101857.22;5056746;28;20128;-71
2023/07/07 06:21:03;;;;;;;8.93;4.32;;;;;;;16.52;76.62;101860.56;5067497;28;20020;-80
2023/07/07 06:23:29;;;;;;;7.38;4.03;;;;;;;16.65;73.50;101855.91;5104868;28;20444;-80
2023/07/07 06:25:55;;;;;;;10.68;4.40;;;;;;;16.83;72.16;101858.91;5071868;28;20024;-81
2023/07/07 06:28:20;;;;;;;7.28;4.10;;;;;;;16.91;70.68;101853.78;5071234;28;20035;-80
2023/07/07 06:30:48;;;;;;;7.03;3.90;;;;;;;17.09;71.32;101856.69;5070798;28;20487;-80
2023/07/07 06:33:14;;;;;;;6.13;3.78;;;;;;;17.13;70.40;101858.94;5066550;28;20119;-81
2023/07/07 06:35:39;;;;;;;8.80;3.85;;;;;;;17.16;71.14;101860.50;5069132;28;20111;-81
2023/07/07 06:38:05;;;;;;;7.70;4.10;;;;;;;17.31;70.49;101855.69;5070942;28;20047;-81
2023/07/07 06:40:30;;;;;;;11.25;4.55;;;;;;;17.43;68.65;101851.97;5069469;28;20077;-82
2023/07/07 06:42:58;;;;;;;10.13;4.70;;;;;;;17.56;68.49;101852.56;5062014;28;20384;-70
2023/07/07 06:45:23;;;;;;;12.52;4.70;;;;;;;17.73;67.56;101856.47;5051512;28;20053;-71
2023/07/07 06:47:49;;;;;;;7.63;4.03;;;;;;;17.75;69.24;101854.50;5050210;28;20048;-71
2023/07/07 06:50:29;;;;;;;9.32;3.70;;;;;;;17.85;68.43;101863.34;5062327;28;20074;-71
2023/07/07 06:52:54;;;;;;;7.82;4.20;;;;;;;18.01;65.38;101868.16;5070805;28;20020;-73
2023/07/07 06:55:20;;;;;;;10.32;4.10;;;;;;;18.15;65.34;101860.63;5083404;28;20468;-72
2023/07/07 06:57:47;;;;;;;9.75;4.40;;;;;;;18.27;64.61;101868.50;5070738;28;20021;-72
2023/07/07 07:00:13;;;;;;;10.10;4.50;;;;;;;18.37;64.70;101872.84;5069675;28;20047;-72
2023/07/07 07:02:39;;;;;;;9.38;4.63;;;;;;;18.51;63.28;101871.59;5070600;28;20056;-72
2023/07/07 07:05:05;;;;;;;9.27;4.68;;;;;;;18.71;62.13;101867.97;5070630;28;20059;-72
2023/07/07 07:07:31;;;;;;;12.95;4.75;;;;;;;18.90;60.77;101876.97;5063000;28;20091;-77
2023/07/07 07:09:56;;;;;;;8.75;3.88;;;;;;;19.09;61.63;101872.41;5067392;28;20028;-76
2023/07/07 07:12:22;;;;;;;7.28;3.67;;;;;;;19.32;61.58;101862.25;5069433;28;20043;-77
2023/07/07 07:14:47;;;;;;;11.60;3.58;;;;;;;19.67;59.33;101866.09;5068517;28;20036;-72
2023/07/07 07:17:12;;;;;;;10.43;3.30;;;;;;;20.03;58.25;101867.88;5070067;28;20016;-72
2023/07/07 07:19:38;;;;;;;6.13;3.33;;;;;;;20.35;56.11;101871.84;5071119;28;20020;-76
2023/07/07 07:22:03;;;;;;;8.18;3.33;;;;;;;20.77;55.45;101872.09;5070809;28;20020;-72
2023/07/07 07:24:29;;;;;;;6.78;2.92;;;;;;;21.20;54.66;101879.25;5069100;28;20036;-72
2023/07/07 07:26:54;;;;;;;7.50;2.90;;;;;;;21.52;52.90;101870.63;5066860;28;20069;-71
2023/07/07 07:29:19;;;;;;;4.97;2.63;;;;;;;21.80;50.54;101870.41;5091693;28;20020;-72
2023/07/07 07:31:45;;;;;;;9.27;3.20;;;;;;;22.11;49.48;101865.34;5076681;28;20081;-71
2023/07/07 07:34:36;;;;;;;5.55;2.95;;;;;;;22.45;52.81;101871.47;5071196;28;20032;-71
2023/07/07 07:37:03;;;;;;;5.82;3.08;;;;;;;22.65;48.37;101868.44;5067923;28;20043;-80
2023/07/07 07:39:29;;;;;;;4.93;2.38;;;;;;;22.98;47.53;101866.63;5070150;28;20397;-78
2023/07/07 07:41:55;;;;;;;5.00;2.50;;;;;;;23.32;47.81;101874.44;5068199;28;20028;-69
2023/07/07 07:44:23;;;;;;;4.68;2.22;;;;;;;23.60;46.87;101870.34;5065305;28;20055;-71
2023/07/07 07:46:51;;;;;;;4.80;2.45;;;;;;;23.89;44.99;101866.19;5069777;28;20477;-71
2023/07/07 07:49:16;;;;;;;5.65;2.17;;;;;;;24.09;44.76;101867.44;5070425;28;20024;-70
2023/07/07 07:51:43;;;;;;;5.30;2.75;;;;;;;24.26;44.65;101860.94;5069667;28;20388;-70
2023/07/07 07:54:11;;;;;;;4.93;2.40;;;;;;;24.64;43.99;101877.16;5078420;28;20429;-70
2023/07/07 07:56:38;;;;;;;3.92;2.10;;;;;;;24.82;42.88;101864.25;5074780;28;20024;-70
2023/07/07 07:59:04;;;;;;;9.48;3.03;;;;;;;24.93;43.51;101874.56;5060600;28;20034;-71
2023/07/07 08:01:30;;;;;;;6.72;2.50;;;;;;;25.14;43.35;101875.72;5068250;28;20032;-70
2023/07/07 08:03:55;;;;;;;4.57;2.25;;;;;;;25.47;41.99;101866.28;5061191;28;20028;-79
2023/07/07 08:06:22;;;;;;;6.22;2.30;;;;;;;25.59;41.88;101867.47;5066946;28;20017;-79
2023/07/07 08:08:47;;;;;;;3.78;2.20;;;;;;;25.92;40.29;101867.91;5068182;28;20082;-71
2023/07/07 08:11:15;;;;;;;3.75;2.10;;;;;;;25.89;41.49;101867.47;5067766;28;20064;-71
2023/07/07 08:13:40;;;;;;;5.70;2.35;;;;;;;26.19;39.79;101873.63;5069255;28;20032;-70
2023/07/07 08:16:10;;;;;;;7.32;2.38;;;;;;;26.46;38.71;101870.22;5066383;28;20424;-71
2023/07/07 08:18:39;;;;;;;5.22;2.05;;;;;;;26.48;39.10;101872.72;5069723;28;20659;-71
2023/07/07 08:21:05;;;;;;;4.30;2.17;;;;;;;26.70;38.12;101865.44;5069036;28;20099;-71
2023/07/07 08:23:31;;;;;;;3.80;2.05;;;;;;;27.04;37.79;101862.00;5069436;28;20034;-71
2023/07/07 08:25:56;;;;;;;2.97;1.90;;;;;;;27.10;36.87;101872.00;5069347;28;20021;-79
2023/07/07 08:28:22;;;;;;;6.25;2.17;;;;;;;27.43;37.24;101867.66;5068831;28;20036;-79
2023/07/07 08:30:47;;;;;;;5.20;2.38;;;;;;;27.57;36.39;101865.00;5068022;28;20024;-80
2023/07/07 08:33:12;;;;;;;5.63;2.47;;;;;;;27.57;35.36;101865.84;5068317;28;20044;-80
2023/07/07 08:35:38;;;;;;;4.93;2.17;;;;;;;27.69;36.76;101868.84;5067339;28;20585;-78
2023/07/07 08:38:06;;;;;;;5.72;2.33;;;;;;;28.01;35.72;101864.56;5068446;28;20693;-78
2023/07/07 08:40:52;;;;;;;3.90;2.00;;;;;;;28.26;38.45;101863.03;5068534;28;20073;-71
2023/07/07 08:43:19;;;;;;;6.20;1.92;;;;;;;28.34;36.64;101853.88;5067033;28;20039;-70
2023/07/07 08:45:56;;;;;;;6.40;2.10;;;;;;;28.64;36.04;101863.28;5051891;28;20055;-71
2023/07/07 08:48:36;;;;;;;5.57;1.88;;;;;;;28.75;33.53;101864.50;5049081;28;20548;-71
2023/07/07 08:51:10;;;;;;;3.42;2.10;;;;;;;28.76;33.25;101868.06;5049897;28;20036;-80
2023/07/07 08:53:57;;;;;;;6.22;2.08;;;;;;;29.01;35.14;101863.72;5056561;28;20035;-80
2023/07/07 08:56:33;;;;;;;3.60;2.00;;;;;;;28.64;32.28;101862.44;5077109;28;20048;-79
2023/07/07 08:59:30;;;;;;;6.15;1.80;;;;;;;28.99;33.57;101863.09;5068483;28;20028;-79
2023/07/07 09:02:13;;;;;;;4.43;2.25;;;;;;;28.73;33.46;101866.59;5049362;28;20482;-70
2023/07/07 09:04:59;;;;;;;3.08;1.95;;;;;;;29.16;34.45;101863.47;5049510;28;20036;-78
2023/07/07 09:07:42;;;;;;;4.90;2.20;;;;;;;29.47;31.90;101866.34;5047490;28;20168;-79
2023/07/07 09:10:35;;;;;;;4.70;1.88;;;;;;;29.66;32.48;101870.06;5048158;28;20393;-71
2023/07/07 09:13:06;;;;;;;;;;;;;;;30.10;35.09;101855.66;5049155;28;20021;-79
2023/07/07 09:15:38;;;;;;;4.63;1.83;;;;;;;30.03;29.81;101854.03;5048598;28;19916;-71
2023/07/07 09:18:19;;;;;;;4.67;2.17;;;;;;;30.18;30.83;101857.28;5064738;28;20027;-79
2023/07/07 09:20:52;;;;;;;4.20;2.00;;;;;;;30.21;29.34;101854.13;5068720;28;20411;-71
2023/07/07 09:23:22;;;;;;;4.28;1.80;;;;;;;30.08;28.42;101856.94;5068161;28;20028;-71
2023/07/07 09:25:57;;;;;;;2.95;1.88;;;;;;;30.24;29.75;101845.53;5068533;28;20033;-79
2023/07/07 09:28:29;;;;;;;3.75;2.08;;;;;;;30.17;30.55;101858.34;5069245;28;20065;-70
2023/07/07 09:30:58;;;;;;;3.47;2.20;;;;;;;30.18;29.23;101857.28;5068099;28;20537;-71
2023/07/07 09:33:24;;;;;;;3.95;2.30;;;;;;;29.93;29.13;101851.75;5062163;28;20024;-80
2023/07/07 09:35:50;;;;;;;5.50;2.08;;;;;;;29.90;29.22;101849.47;5068463;28;20056;-72
2023/07/07 09:38:33;;;;;;;4.72;2.20;;;;;;;29.43;28.55;101856.09;5067756;28;20048;-72
2023/07/07 09:41:09;;;;;;;4.47;2.15;;;;;;;29.60;29.27;101857.31;5068218;28;20062;-71
2023/07/07 09:43:44;;;;;;;3.72;2.20;;;;;;;29.68;30.82;101850.84;5067962;28;20566;-71
2023/07/07 09:46:27;;;;;;;4.47;2.05;;;;;;;29.71;30.18;101845.81;5063656;28;20370;-70
2023/07/07 09:49:26;;;;;;;5.65;2.03;;;;;;;30.11;31.43;101842.91;5058674;28;20373;-70
2023/07/07 09:51:58;;;;;;;4.13;2.13;;;;;;;30.03;30.10;101849.44;5048290;28;20473;-70
2023/07/07 09:54:23;;;;;;;2.80;2.00;;;;;;;29.78;29.28;101846.59;5073488;28;20033;-79
2023/07/07 09:56:56;;;;;;;3.08;2.00;;;;;;;30.02;28.78;101836.03;5068617;28;20027;-70
2023/07/07 09:59:27;;;;;;;7.90;2.08;;;;;;;30.05;30.27;101824.78;5068286;28;20024;-70
2023/07/07 10:01:55;;;;;;;3.45;2.05;;;;;;;30.06;28.02;101821.03;5051230;28;20411;-70
2023/07/07 10:04:21;;;;;;;3.15;2.15;;;;;;;30.04;27.90;101825.84;5072474;28;20075;-79
2023/07/07 10:07:04;;;;;;;12.27;2.50;;;;;;;29.91;29.57;101832.97;5062711;28;20032;-79
2023/07/07 10:09:31;;;;;;;5.30;2.10;;;;;;;29.76;29.11;101821.56;5070731;28;20074;-78
2023/07/07 10:11:57;;;;;;;3.08;2.22;;;;;;;29.49;29.29;101825.44;5071631;28;20098;-79
2023/07/07 10:14:27;;;;;;;3.38;2.17;;;;;;;29.80;29.27;101816.53;5071195;28;20550;-79
2023/07/07 10:17:08;;;;;;;5.82;2.20;;;;;;;30.02;29.24;101819.75;5068126;28;20476;-71
2023/07/07 10:19:44;;;;;;;5.93;2.10;;;;;;;29.85;29.51;101819.44;5063428;28;20039;-71
2023/07/07 10:22:14;;;;;;;5.18;2.20;;;;;;;30.08;29.48;101813.50;5071074;28;20025;-70
2023/07/07 10:24:40;;;;;;;3.47;1.92;;;;;;;29.84;28.71;101813.19;5064671;28;20021;-71
2023/07/07 10:27:11;;;;;;;3.30;2.17;;;;;;;29.80;29.36;101817.38;5071181;28;20028;-70
2023/07/07 10:29:40;;;;;;;3.67;2.20;;;;;;;29.90;28.34;101809.59;5071783;28;20028;-70
2023/07/07 10:32:17;;;;;;;7.88;2.20;;;;;;;30.11;29.62;101818.50;5065390;28;20032;-71
2023/07/07 10:34:48;;;;;;;4.78;2.38;;;;;;;30.05;28.78;101811.22;5068773;28;20036;-79
2023/07/07 10:37:22;;;;;;;3.45;2.00;;;;;;;30.03;27.91;101808.72;5070279;28;20464;-70
2023/07/07 10:39:56;;;;;;;2.67;2.10;;;;;;;30.01;28.21;101801.78;5071081;28;20024;-79
2023/07/07 10:42:25;;;;;;;3.75;2.20;;;;;;;29.97;27.91;101806.81;5064924;28;20064;-79
2023/07/07 10:44:56;;;;;;;2.90;2.08;;;;;;;29.89;27.63;101802.50;5071086;28;20040;-79
2023/07/07 10:47:26;;;;;;;4.85;2.30;;;;;;;30.01;26.91;101802.63;5070731;28;20060;-80
2023/07/07 10:49:52;;;;;;;4.20;2.15;;;;;;;30.16;28.19;101799.66;5067092;28;20021;-71
2023/07/07 10:52:40;;;;;;;4.32;2.20;;;;;;;30.35;27.88;101804.09;5067738;28;20115;-79
2023/07/07 10:55:32;;;;;;;4.13;2.40;;;;;;;30.58;28.59;101806.22;5073292;28;20032;-71
2023/07/07 10:57:58;;;;;;;3.85;2.38;;;;;;;30.61;26.78;101794.09;5059243;28;20104;-71
2023/07/07 11:00:42;;;;;;;6.72;2.35;;;;;;;30.99;27.97;101799.38;5071074;28;20103;-71
2023/07/07 11:03:13;;;;;;;6.85;2.38;;;;;;;31.02;27.45;101790.75;5070884;28;20024;-71
2023/07/07 11:05:53;;;;;;;3.00;1.93;;;;;;;31.14;26.65;101791.66;5071237;28;20104;-70
2023/07/07 11:08:36;;;;;;;4.78;2.45;;;;;;;31.03;26.44;101795.97;5058970;28;20400;-70
2023/07/07 11:11:43;;;;;;;5.95;2.65;;;;;;;31.08;27.56;101798.81;5069566;28;20040;-70
2023/07/07 11:14:25;;;;;;;5.32;2.35;;;;;;;31.02;25.94;101794.31;5031324;28;20120;-71
2023/07/07 11:17:09;;;;;;;5.97;2.35;;;;;;;31.34;26.66;101791.47;5057483;28;20048;-79
2023/07/07 11:20:17;;;;;;;3.50;2.60;;;;;;;31.51;26.83;101787.03;5071335;28;20032;-71
2023/07/07 11:23:03;;;;;;;3.65;2.28;;;;;;;31.61;25.81;101792.75;5069389;28;20111;-71
2023/07/07 11:25:49;;;;;;;5.95;2.22;;;;;;;31.58;25.95;101790.50;5070854;28;20024;-71
2023/07/07 11:28:20;;;;;;;5.00;2.30;;;;;;;31.49;25.51;101779.13;5068796;28;20043;-71
2023/07/07 11:31:20;;;;;;;5.23;2.60;;;;;;;31.67;26.82;101772.81;5059992;28;20078;-72
2023/07/07 11:33:54;;;;;;;5.13;2.47;;;;;;;31.32;25.18;101777.25;5066693;28;20551;-80
2023/07/07 11:36:44;;;;;;;7.47;2.50;;;;;;;31.01;25.63;101776.31;5071223;28;20032;-79